MMMD/MID METAR and TAF weather

Enter ICAO airport designator
Station Type Date Time Source
MMMD METAR 2021/09/28 04:44 UTC NOAA

MMMD 280444Z 13004KT 7SM FEW015 25/23 A3000 RMK 8/500


Station Type Date Time Source
MMMD Decoded METAR 2021/09/28 04:44 UTC NOAA

Merida / lic Manuel Crecencio, Mexico (MMMD) 20-56N 089-39W 11M
Sep 28, 2021 - 12:44 AM EDT / 2021.09.28 0444 UTC
Wind: from the SE (130 degrees) at 5 MPH (4 KT):0
Visibility: 7 mile(s):0
Sky conditions: mostly clear
Temperature: 77 F (25 C)
Dew Point: 73 F (23 C)
Relative Humidity: 88%
Pressure (altimeter): 30 in. Hg (1015 hPa)
ob: MMMD 280444Z 13004KT 7SM FEW015 25/23 A3000 RMK 8/500
cycle: 4

Station Type Date Time Source
MMMD TAF 2021/09/26 00:46 UTC NOAA

TAF
AMD MMMD 262339Z 2700/2806 14030G40KT 1/2SM TSRA OVC010CB TX34/2720Z TN24/2710Z
FM270030 14010KT 3SM RA BKN010CB OVC030
FM270300 09010KT P6SM SCT020 BKN100
FM271200 00000KT 2SM BR OVC005
FM271500 09010KT 5SM HZ BKN010
FM271800 12012KT P6SM BKN025
TEMPO 2721/2801 4SM TSRA BKN020CB

Example: see airport list